Van Cleve, Iowa
Current Conditions -  °F | °C
As of 4:53 AM on Friday 31 Oct 2014 (Local Time) from KMIW Reporting Station
Clear Clear  
Wind Chill: 18°   Ceiling: Unl
Heat Index: 30°   Visibility: 10mi
Dew Point: 16°   Wind: 18mph
Humidity: 56%   Direction: 350°N
Pressure: 30.37"   Gusts: 28mph
Location:  41.9226°N, 93.0682°W
Report Text: KMIW 310953Z AUTO 35016G24KT 10SM CLR M01/M09 A3037 RMK AO2 PK WND 35030/0920 SLP291 T10111089
Loading
Personal Weather Stations






























Interactive Weather Map
Tropical Storm Tracking
New forecast layout! Learn more

10-Day Weather Forecast

Advertisements
Track Severe Weather on mobile